VE-0025 weather

Buja Heliport
San José de Buja, Monagas, Venezuela

Public forecast

Using degrees Celsius for public forecast. Weather courtesy of forecast.io.

METAR (pilot weather report)

Report is more than 6 hours old.

Closest report is Maturín Airport, 30.9 nm (57.2 km) WNW. Retrieved 2018/12/04 12:00 UTC (4 months ago):

SVMT 041200Z /////KT 9999 SCT010 BKN300 23/22 Q1011

TAF (pilot weather forecast)

Forecast is more than 12 hours old.

Closest forecast is Piarco International Airport, 98.8 nm (183.0 km) NE. Retrieved 2019/03/24 12:08 UTC (2 days ago):

TAF TTPP 241000Z 2412/2512 11012KT 9999 FEW020